WEATHER DATA

YESTERDAY
Time Temp. Dewp. Hum. Wind dir Wind speed Wind gust Bar. 1h Prec. 24h Prec.
00:08 16.6 13.1 80 220 0.3 0.8 1017.9 0.0000 0.0000
00:18 16.4 13.1 81 135 0.3 0.6 1017.9 0.0000 0.0000
00:28 16.3 13 81 215 0.3 1.1 1018 0.0000 0.0000
00:38 16.3 13.2 82 219 0.3 0.8 1017.9 0.0000 0.0000
00:49 16.2 13.1 82 216 0.3 0.8 1017.9 0.0000 0.0000
00:59 16.2 13.3 83 143 0.3 0.8 1017.9 0.0000 0.0000
01:09 16.1 13.2 83 127 0.3 0.8 1017.8 0.0000 0.0000
01:19 15.9 13 83 135 0.3 0.6 1017.8 0.0000 0.0000
01:29 15.9 13.2 84 180 0.3 0.8 1017.7 0.0000 0.0000
01:39 15.8 13.1 84 90 0.3 0.8 1017.8 0.0000 0.0000
01:49 15.7 13 84 38 0.3 0.8 1017.8 0.0000 0.0000
01:59 15.7 13 84 225 0.3 0.8 1017.6 0.0000 0.0000
02:10 15.6 12.9 84 149 0.3 0.6 1017.6 0.0000 0.0000
02:20 15.6 12.9 84 214 0.3 1.1 1017.6 0.0000 0.0000
02:30 15.6 12.9 84 218 0.3 1.4 1017.4 0.0000 0.0000
02:40 15.5 12.6 83 180 0.3 0.8 1017.5 0.0000 0.0000
02:50 15.4 12.5 83 135 0.3 0.6 1017.4 0.0000 0.0000
03:00 15.3 12.6 84 135 0.3 0.8 1017.4 0.0000 0.0000
03:10 15.3 12.6 84 90 0.3 0.6 1017.6 0.0000 0.0000
03:21 15.1 12.4 84 127 0.3 0.6 1017.4 0.0000 0.0000
03:31 15 12.3 84 90 0.3 0.6 1017.3 0.0000 0.0000
03:41 14.9 12.2 84 149 0.3 0.8 1017.4 0.0000 0.0000
03:51 14.8 12.1 84 135 0.3 0.6 1017.3 0.0000 0.0000
04:01 14.7 12.2 85 135 0.3 0.8 1017.4 0.0000 0.0000
04:11 14.7 12.2 85 90 0.3 0.6 1017.4 0.0000 0.0000
04:21 14.6 12.1 85 135 0.3 0.8 1017.3 0.0000 0.0000
04:32 14.5 12 85 153 0.3 0.8 1017.4 0.0000 0.0000
04:42 14.4 11.9 85 127 0.3 0.6 1017.1 0.0000 0.0000
04:52 14.4 11.9 85 90 0.3 0.8 1017.1 0.0000 0.0000
05:01 14.3 11.8 85 129 0.3 0.8 1017 0.0000 0.0000
05:12 14.3 12 86 122 0.3 0.8 1016.8 0.0000 0.0000
05:22 14.3 12 86 135 0.3 0.6 1016.8 0.0000 0.0000
05:32 14.3 12 86 128 0.3 0.8 1016.8 0.0000 0.0000
05:43 14.2 11.9 86 90 0.3 0.6 1017 0.0000 0.0000
05:53 14.1 11.8 86 135 0.3 0.6 1016.9 0.0000 0.0000
06:03 14 11.7 86 142 0.3 0.8 1017.1 0.0000 0.0000
06:12 14 11.7 86 146 0.3 0.8 1017.2 0.0000 0.0000
06:23 14 11.7 86 135 0.3 0.6 1017.2 0.0000 0.0000
06:33 14 11.7 86 122 0.3 0.6 1017.2 0.0000 0.0000
06:43 14 11.7 86 135 0.3 0.6 1017.3 0.0000 0.0000
06:53 14 11.7 86 0 0.6 1017.4 0.0000 0.0000
07:04 14 11.7 86 0 0.6 1017.3 0.0000 0.0000
07:14 14 11.9 87 135 0.3 0.6 1017.3 0.0000 0.0000
07:23 14.2 12.1 87 0 0.6 1017.4 0.0000 0.0000
07:34 14.4 12.3 87 135 0.3 0.6 1017.4 0.0000 0.0000
07:44 14.7 12.6 87 90 0.3 0.6 1017.6 0.0000 0.0000
07:54 15.3 13.3 88 90 0.3 0.6 1017.5 0.0000 0.0000
08:04 15.9 13.9 88 90 0.3 0.6 1017.5 0.0000 0.0000
08:15 16.5 14.3 87 90 0.3 0.6 1017.8 0.0000 0.0000
08:25 17.2 15 87 90 0.3 0.6 1017.8 0.0000 0.0000
08:34 17.8 15.4 86 90 0.3 0.6 1017.8 0.0000 0.0000
08:45 18.4 15.6 84 90 0.3 0.6 1017.8 0.0000 0.0000
08:55 19.1 16 82 90 0.3 0.6 1017.8 0.0000 0.0000
09:05 19.8 16.4 81 90 0.3 0.6 1017.8 0.0000 0.0000
09:15 20.5 16.7 79 90 0.3 0.6 1017.9 0.0000 0.0000
09:26 21.1 16.3 74 90 0.3 1.1 1017.9 0.0000 0.0000
09:36 21.6 16.1 71 90 0.3 0.8 1017.9 0.0000 0.0000
09:45 22.2 16.5 70 50 0.3 0.8 1017.7 0.0000 0.0000
09:55 22.8 16.4 67 90 0.3 1.4 1017.7 0.0000 0.0000
10:06 23.3 16.6 66 135 0.6 0.8 1017.8 0.0000 0.0000
10:16 23.7 16.7 65 34 0.3 1.4 1017.7 0.0000 0.0000
10:26 24.1 16.9 64 90 0.3 1.4 1017.7 0.0000 0.0000
10:36 24.5 17 63 52 0.3 1.4 1017.8 0.0000 0.0000
10:47 25 17.2 62 143 0.6 1.4 1017.6 0.0000 0.0000
10:56 25.4 16 56 29 0.8 1.7 1017.6 0.0000 0.0000
11:06 25.6 16.2 56 36 0.3 1.1 1017.6 0.0000 0.0000
11:17 26 16.8 57 90 0.6 2.5 1017.6 0.0000 0.0000
11:27 26.3 17.7 59 69 0.6 1.4 1017.5 0.0000 0.0000
11:37 26.5 18.1 60 270 0.3 0.8 1017.6 0.0000 0.0000
11:47 26.5 17.8 59 0.3 0.8 1017.7 0.0000 0.0000
11:58 26.4 17.2 57 37 0.6 1.1 1017.7 0.0000 0.0000
12:07 26.4 17.2 57 37 0.3 1.4 1017.7 0.0000 0.0000
12:17 26.5 16.7 55 8 0.3 1.4 1017.5 0.0000 0.0000
12:28 26.7 16.6 54 25 0.6 1.9 1017.4 0.0000 0.0000
12:38 26.9 17.1 55 122 0.3 0.8 1017.4 0.0000 0.0000
12:48 27.1 17 54 123 0.6 1.4 1017.2 0.0000 0.0000
12:58 27.4 17 53 127 0.6 1.7 1017.2 0.0000 0.0000
13:09 27.7 17 52 45 0.3 1.1 1017.2 0.0000 0.0000
13:18 28.1 17.3 52 21 0.3 0.8 1017.1 0.0000 0.0000
13:28 28.5 17.1 50 36 0.6 1.7 1016.9 0.0000 0.0000
13:38 28.7 17.3 50 90 0.3 0.8 1016.6 0.0000 0.0000
13:49 28.6 16.8 49 28 0.6 1.4 1016.7 0.0000 0.0000
13:59 28.8 16.7 48 30 0.3 1.4 1016.7 0.0000 0.0000
14:09 29 16.6 47 53 0.6 1.1 1016.6 0.0000 0.0000
14:19 29 17.5 50 225 0.3 1.1 1016.6 0.0000 0.0000
14:29 29 17.2 49 345 0.6 1.1 1016.5 0.0000 0.0000
14:39 29 16.9 48 19 0.6 1.4 1016.5 0.0000 0.0000
14:49 29.1 16.6 47 8 0.6 2.2 1016.5 0.0000 0.0000
15:00 29.2 17.1 48 45 0.6 1.9 1016.5 0.0000 0.0000
15:10 29.2 16.7 47 334 0.3 0.8 1016.3 0.0000 0.0000
15:20 29.2 16.7 47 28 0.6 1.4 1016.3 0.0000 0.0000
15:30 29.2 17.7 50 21 1.1 2.8 1016.3 0.0000 0.0000
15:40 29.2 18 51 19 0.6 1.7 1016.3 0.0000 0.0000
15:50 29.2 18.3 52 11 0.8 2.5 1016.5 0.0000 0.0000
16:00 29.1 18.2 52 17 1.1 2.5 1016.1 0.0000 0.0000
16:11 29 18.2 52 10 0.8 2.2 1016 0.0000 0.0000
16:21 29.1 18.5 53 315 0.6 1.4 1015.9 0.0000 0.0000
16:31 29.1 18.2 52 13 1.1 3.1 1015.8 0.0000 0.0000
16:41 29.1 18.5 53 349 0.6 1.7 1015.7 0.0000 0.0000
16:51 29 19 55 14 0.6 2.2 1015.7 0.0000 0.0000
17:01 28.9 19 55 355 0.3 1.9 1015.9 0.0000 0.0000
17:11 28.8 19.2 56 351 0.6 1.4 1015.9 0.0000 0.0000
17:21 28.7 19.1 56 12 1.1 2.5 1015.8 0.0000 0.0000
17:32 28.6 19.3 57 356 0.6 1.7 1015.9 0.0000 0.0000
17:42 28.5 18.9 56 358 0.8 2.5 1015.8 0.0000 0.0000
17:52 28.4 19.1 57 353 0.6 1.9 1015.9 0.0000 0.0000
18:02 28.4 19.1 57 169 0.6 1.7 1015.9 0.0000 0.0000
18:12 28.4 19.1 57 270 0.6 2.2 1015.9 0.0000 0.0000
18:22 28.4 19.1 57 35 0.3 1.1 1015.6 0.0000 0.0000
18:32 28.3 19 57 270 0.6 1.4 1015.7 0.0000 0.0000
18:43 28.1 18.8 57 270 0.6 1.4 1015.8 0.0000 0.0000
18:53 27.8 18.8 58 270 0.6 0.8 1015.6 0.0000 0.0000
19:02 27.5 18.8 59 270 0.3 1.1 1015.7 0.0000 0.0000
19:13 27.2 18.5 59 304 0.6 1.7 1015.7 0.0000 0.0000
19:23 26.9 18.2 59 270 0.3 1.1 1015.7 0.0000 0.0000
19:33 26.6 18.5 61 326 0.3 0.8 1015.7 0.0000 0.0000
19:43 26.3 18.2 61 143 0.3 0.8 1015.7 0.0000 0.0000
19:54 25.8 18.2 63 135 0.3 1.4 1015.6 0.0000 0.0000
20:03 25.3 18.3 65 127 0.6 1.4 1015.7 0.0000 0.0000
20:13 24.8 18 66 143 0.6 1.1 1015.6 0.0000 0.0000
20:24 24.3 17.8 67 143 0.6 1.1 1015.7 0.0000 0.0000
20:34 23.8 17.5 68 135 0.6 1.4 1015.8 0.0000 0.0000
20:44 23.3 17.1 68 135 0.6 1.1 1015.8 0.0000 0.0000
20:54 23 17 69 141 0.6 0.8 1015.8 0.0000 0.0000
21:04 22.6 16.9 70 135 0.3 0.8 1015.9 0.0000 0.0000
21:14 22.3 16.8 71 135 0.3 0.8 1016 0.0000 0.0000
21:24 22 16.7 72 135 0.6 1.1 1016 0.0000 0.0000
21:34 21.7 16.7 73 146 0.6 1.1 1016.1 0.0000 0.0000
21:45 21.5 16.5 73 148 0.3 0.8 1016 0.0000 0.0000
21:54 21.3 16.5 74 151 0.6 0.8 1016.1 0.0000 0.0000
22:04 21.2 16.6 75 142 0.6 1.1 1016 0.0000 0.0000
22:15 21 16.4 75 150 0.3 0.8 1016.1 0.0000 0.0000
22:25 20.8 16.4 76 164 0.3 0.8 1016.2 0.0000 0.0000
22:35 20.6 16.2 76 138 0.6 0.8 1016.2 0.0000 0.0000
22:45 20.4 16.2 77 149 0.6 1.1 1016.3 0.0000 0.0000
22:56 20.2 16 77 135 0.3 0.8 1016.5 0.0000 0.0000
23:05 20.1 16.1 78 183 0.6 1.1 1016.6 0.0000 0.0000
23:15 19.9 16 78 142 0.3 0.8 1016.5 0.0000 0.0000
23:26 19.6 15.7 78 153 0.3 0.8 1016.5 0.0000 0.0000
23:36 19.5 15.8 79 164 0.6 0.8 1016.7 0.0000 0.0000
23:46 19.4 15.7 79 156 0.3 0.8 1016.6 0.0000 0.0000
23:56 19.2 15.7 80 152 0.3 0.6 1016.8 0.0000

DAY STATISTIC

2019-08-17
TEMPERATURE
AVERAGE
21.7
HIGH
29.2
15:00
LOW
14.0
06:03
PRESSURE
AVERAGE
1016.9
HIGH
1018.0
00:28
LOW
1015.6
18:22
DEWPOINT
AVERAGE
15.6
HIGH
19.3
17:32
LOW
11.7
06:03
HUMIDITY
AVERAGE
70
HIGH
88
07:54
LOW
47
14:09
WIND SPEED
AVERAGE
0.4
HIGH
1.1
15:30
WIND GUST
AVERAGE
1.1
HIGH
3.1
16:31
WIND DIRECTION
PREVAILING
SE
38%
N
13.4
NE
12.0
E
16.2
SE
38.0
S
4.2
SW
5.6
W
4.9
NW
2.8
PRECIPITATION
RAIN HOUR
0.0
RAIN DAY
0.0
TEMPERATURE (°C)
LOW
14.0
HIGH
29.2
AVERAGE
21.7
PRESSURE (hpa)
LOW
1015.6
HIGH
1018.0
AVERAGE
1016.9
DEVICE